Jonesville, Florida
Current Conditions -  °F | °C
As of 11:53 AM on Friday 24 Oct 2014 (Local Time) from KGNV Reporting Station
Clear Clear  
Wind Chill: 72°   Ceiling: Unl
Heat Index: 72°   Visibility: 10mi
Dew Point: 54°   Wind: 7mph
Humidity: 53%   Direction: 50°NE
Pressure: 30.05"   Gusts: NA
Location:  29.645°N, 82.5949°W
Report Text: KGNV 241553Z 05006KT 10SM CLR 22/12 A3005 RMK AO2 SLP173 T02220122
Loading
Personal Weather Stations






























Interactive Weather Map
Tropical Storm Tracking
New forecast layout! Learn more

10-Day Weather Forecast

Advertisements
Track Severe Weather on mobile